This is the latest recevied weather packets stored in our database for station/object N4OGP-WX. If no packets are shown the sender has not sent any weather packets the latest 10 day(s).
| Time | Temp. | Humidity | Pressure | Rain* | Wind** | Luminosity | Snow |
|---|---|---|---|---|---|---|---|
| 1777534910 | 23.89° C | 42% | 1020.4 hPa | 0 mm | - | - | - |
| 1777534820 | 23.89° C | 42% | 1020.4 hPa | 0 mm | - | - | - |
| 1777534760 | 22.22° C | 90% | 1007.3 hPa | 0 mm | - | - | - |
| 1777534700 | 21.67° C | 90% | 1007.4 hPa | 0 mm | - | - | - |
| 1777534640 | 23.89° C | 42% | 1020.4 hPa | 0 mm | - | - | - |
| 1777534580 | 23.89° C | 42% | 1020.4 hPa | 0 mm | - | - | - |
| 1777534490 | 23.89° C | 42% | 1020.4 hPa | 0 mm | - | - | - |
| 1777534430 | 23.89° C | 42% | 1020.4 hPa | 0 mm | - | - | - |
| 1777534370 | 21.67° C | 90% | 1007.5 hPa | 0 mm | - | - | - |
| 1777534310 | 21.67° C | 90% | 1007.5 hPa | 0 mm | - | - | - |
| 1777534250 | 21.67° C | 90% | 1007.5 hPa | 0 mm | - | - | - |
| 1777534160 | 23.89° C | 42% | 1020.4 hPa | 0 mm | - | - | - |
| 1777534099 | 21.67° C | 90% | 1007.4 hPa | 0 mm | - | - | - |
| 1777534010 | 23.89° C | 42% | 1020.4 hPa | 0 mm | - | - | - |
| 1777533920 | 21.67° C | 90% | 1007 hPa | 0 mm | - | - | - |
| 1777533830 | 23.89° C | 42% | 1020.4 hPa | 0 mm | - | - | - |
| 1777533740 | 23.89° C | 42% | 1020.4 hPa | 0 mm | - | - | - |
| 1777533650 | 21.11° C | 90% | 1006.9 hPa | 0 mm | - | - | - |
| 1777533590 | 23.89° C | 42% | 1020.4 hPa | 0 mm | - | - | - |
| 1777533529 | 23.89° C | 42% | 1020.4 hPa | 0 mm | - | - | - |
| 1777533470 | 21.11° C | 90% | 1007.1 hPa | 0 mm | - | - | - |
| 1777533410 | 23.89° C | 42% | 1020.4 hPa | 0 mm | - | - | - |
| 1777533320 | 23.89° C | 42% | 1020.4 hPa | 0 mm | - | - | - |
| 1777533260 | 23.89° C | 42% | 1020.4 hPa | 0 mm | - | - | - |
| 1777533170 | 23.89° C | 42% | 1020.4 hPa | 0 mm | - | - | - |
* Rain latest hour (hover to see other rain measurements)
** Current wind speed in m/s (hover to see current wind gust speed)